sensor_id;sensor_type;location;lat;lon;timestamp;pressure;altitude;pressure_sealevel;temperature;humidity
45621;BME280;31345;51.522;10.702;2023-08-01T00:01:07;97699.84;;;16.85;100.00
45621;BME280;31345;51.522;10.702;2023-08-01T00:03:40;97697.75;;;16.80;100.00
45621;BME280;31345;51.522;10.702;2023-08-01T00:06:08;97683.38;;;16.83;100.00
45621;BME280;31345;51.522;10.702;2023-08-01T00:08:36;97683.19;;;16.84;100.00
45621;BME280;31345;51.522;10.702;2023-08-01T00:11:04;97679.91;;;16.82;100.00
45621;BME280;31345;51.522;10.702;2023-08-01T00:13:32;97679.25;;;16.80;100.00
45621;BME280;31345;51.522;10.702;2023-08-01T00:16:00;97677.91;;;16.84;100.00
45621;BME280;31345;51.522;10.702;2023-08-01T00:18:32;97667.34;;;16.84;100.00
45621;BME280;31345;51.522;10.702;2023-08-01T00:21:00;97654.16;;;16.84;100.00
45621;BME280;31345;51.522;10.702;2023-08-01T00:23:32;97642.78;;;16.84;100.00
45621;BME280;31345;51.522;10.702;2023-08-01T00:26:02;97626.59;;;16.87;100.00
45621;BME280;31345;51.522;10.702;2023-08-01T00:28:34;97618.00;;;16.85;100.00
45621;BME280;31345;51.522;10.702;2023-08-01T00:31:08;97623.78;;;16.89;100.00
45621;BME280;31345;51.522;10.702;2023-08-01T00:33:41;97615.84;;;16.89;100.00
45621;BME280;31345;51.522;10.702;2023-08-01T00:36:13;97606.09;;;16.89;100.00
45621;BME280;31345;51.522;10.702;2023-08-01T00:38:46;97601.81;;;16.88;100.00
45621;BME280;31345;51.522;10.702;2023-08-01T00:41:21;97605.91;;;16.91;100.00
45621;BME280;31345;51.522;10.702;2023-08-01T00:43:54;97597.00;;;16.92;100.00
45621;BME280;31345;51.522;10.702;2023-08-01T00:46:28;97580.53;;;16.90;100.00
45621;BME280;31345;51.522;10.702;2023-08-01T00:48:56;97582.00;;;16.92;100.00
45621;BME280;31345;51.522;10.702;2023-08-01T00:51:31;97573.53;;;16.97;100.00
45621;BME280;31345;51.522;10.702;2023-08-01T00:54:04;97565.63;;;16.97;100.00
45621;BME280;31345;51.522;10.702;2023-08-01T00:56:33;97564.78;;;16.96;100.00
45621;BME280;31345;51.522;10.702;2023-08-01T00:59:04;97562.97;;;16.97;100.00
45621;BME280;31345;51.522;10.702;2023-08-01T01:01:33;97557.34;;;17.00;100.00
45621;BME280;31345;51.522;10.702;2023-08-01T01:04:07;97555.69;;;16.99;100.00
45621;BME280;31345;51.522;10.702;2023-08-01T01:06:42;97555.69;;;16.99;100.00
45621;BME280;31345;51.522;10.702;2023-08-01T01:09:16;97551.22;;;17.00;100.00
45621;BME280;31345;51.522;10.702;2023-08-01T01:11:50;97545.94;;;17.00;100.00
45621;BME280;31345;51.522;10.702;2023-08-01T01:14:22;97534.03;;;17.04;100.00
45621;BME280;31345;51.522;10.702;2023-08-01T01:16:50;97536.50;;;17.05;100.00
45621;BME280;31345;51.522;10.702;2023-08-01T01:19:22;97521.66;;;17.04;100.00
45621;BME280;31345;51.522;10.702;2023-08-01T01:21:57;97515.72;;;17.02;100.00
45621;BME280;31345;51.522;10.702;2023-08-01T01:24:26;97518.19;;;17.04;100.00
45621;BME280;31345;51.522;10.702;2023-08-01T01:26:56;97518.00;;;17.05;100.00
45621;BME280;31345;51.522;10.702;2023-08-01T01:29:26;97515.53;;;17.04;100.00
45621;BME280;31345;51.522;10.702;2023-08-01T01:31:57;97512.06;;;17.03;100.00
45621;BME280;31345;51.522;10.702;2023-08-01T01:34:27;97509.81;;;17.00;100.00
45621;BME280;31345;51.522;10.702;2023-08-01T01:37:01;97506.78;;;17.03;100.00
45621;BME280;31345;51.522;10.702;2023-08-01T01:39:29;97504.81;;;17.05;100.00
45621;BME280;31345;51.522;10.702;2023-08-01T01:41:57;97497.91;;;17.04;100.00
45621;BME280;31345;51.522;10.702;2023-08-01T01:44:24;97494.44;;;17.04;100.00
45621;BME280;31345;51.522;10.702;2023-08-01T01:46:57;97481.22;;;17.04;100.00
45621;BME280;31345;51.522;10.702;2023-08-01T01:49:25;97489.16;;;17.04;100.00
45621;BME280;31345;51.522;10.702;2023-08-01T01:51:57;97489.59;;;17.07;100.00
45621;BME280;31345;51.522;10.702;2023-08-01T01:54:32;97483.88;;;17.04;100.00
45621;BME280;31345;51.522;10.702;2023-08-01T01:57:05;97477.75;;;17.03;100.00
45621;BME280;31345;51.522;10.702;2023-08-01T01:59:33;97484.03;;;17.02;100.00
45621;BME280;31345;51.522;10.702;2023-08-01T02:02:06;97479.78;;;17.01;100.00
45621;BME280;31345;51.522;10.702;2023-08-01T02:04:34;97471.84;;;17.01;100.00
45621;BME280;31345;51.522;10.702;2023-08-01T02:07:07;97469.38;;;17.00;100.00
45621;BME280;31345;51.522;10.702;2023-08-01T02:09:37;97462.31;;;17.00;100.00
45621;BME280;31345;51.522;10.702;2023-08-01T02:12:06;97461.47;;;17.00;100.00
45621;BME280;31345;51.522;10.702;2023-08-01T02:14:40;97455.66;;;17.04;100.00
45621;BME280;31345;51.522;10.702;2023-08-01T02:17:08;97449.97;;;17.07;100.00
45621;BME280;31345;51.522;10.702;2023-08-01T02:19:42;97436.78;;;17.07;100.00
45621;BME280;31345;51.522;10.702;2023-08-01T02:22:10;97437.78;;;17.06;100.00
45621;BME280;31345;51.522;10.702;2023-08-01T02:24:44;97439.41;;;17.07;100.00
45621;BME280;31345;51.522;10.702;2023-08-01T02:27:11;97435.97;;;17.07;100.00
45621;BME280;31345;51.522;10.702;2023-08-01T02:29:39;97441.63;;;17.04;100.00
45621;BME280;31345;51.522;10.702;2023-08-01T02:32:11;97443.63;;;17.02;100.00
45621;BME280;31345;51.522;10.702;2023-08-01T02:34:44;97439.59;;;17.06;100.00
45621;BME280;31345;51.522;10.702;2023-08-01T02:37:17;97445.44;;;17.01;100.00
45621;BME280;31345;51.522;10.702;2023-08-01T02:39:52;97443.72;;;16.93;100.00
45621;BME280;31345;51.522;10.702;2023-08-01T02:42:19;97446.00;;;16.96;100.00
45621;BME280;31345;51.522;10.702;2023-08-01T02:44:47;97450.47;;;16.96;100.00
45621;BME280;31345;51.522;10.702;2023-08-01T02:47:19;97444.28;;;16.89;100.00
45621;BME280;31345;51.522;10.702;2023-08-01T02:49:52;97439.00;;;16.89;100.00
45621;BME280;31345;51.522;10.702;2023-08-01T02:52:24;97435.09;;;16.84;100.00
45621;BME280;31345;51.522;10.702;2023-08-01T02:54:58;97434.44;;;16.82;100.00
45621;BME280;31345;51.522;10.702;2023-08-01T02:57:26;97433.44;;;16.83;100.00
45621;BME280;31345;51.522;10.702;2023-08-01T02:59:54;97438.59;;;16.92;100.00
45621;BME280;31345;51.522;10.702;2023-08-01T03:02:21;97430.44;;;16.87;100.00
45621;BME280;31345;51.522;10.702;2023-08-01T03:04:49;97437.72;;;16.84;100.00
45621;BME280;31345;51.522;10.702;2023-08-01T03:07:22;97434.44;;;16.82;100.00
45621;BME280;31345;51.522;10.702;2023-08-01T03:09:55;97428.34;;;16.82;100.00
45621;BME280;31345;51.522;10.702;2023-08-01T03:12:30;97423.09;;;16.82;100.00
45621;BME280;31345;51.522;10.702;2023-08-01T03:14:58;97413.97;;;16.84;100.00
45621;BME280;31345;51.522;10.702;2023-08-01T03:17:31;97416.78;;;16.83;100.00
45621;BME280;31345;51.522;10.702;2023-08-01T03:20:04;97416.16;;;16.81;100.00
45621;BME280;31345;51.522;10.702;2023-08-01T03:22:44;97413.31;;;16.82;100.00
45621;BME280;31345;51.522;10.702;2023-08-01T03:25:11;97404.59;;;16.82;100.00
45621;BME280;31345;51.522;10.702;2023-08-01T03:27:40;97392.97;;;16.76;100.00
45621;BME280;31345;51.522;10.702;2023-08-01T03:30:13;97383.56;;;16.74;100.00
45621;BME280;31345;51.522;10.702;2023-08-01T03:32:45;97377.50;;;16.73;100.00
45621;BME280;31345;51.522;10.702;2023-08-01T03:35:19;97374.00;;;16.72;100.00
45621;BME280;31345;51.522;10.702;2023-08-01T03:37:47;97365.31;;;16.72;100.00
45621;BME280;31345;51.522;10.702;2023-08-01T03:40:19;97334.25;;;16.74;100.00
45621;BME280;31345;51.522;10.702;2023-08-01T03:42:54;97314.16;;;16.73;100.00
45621;BME280;31345;51.522;10.702;2023-08-01T03:45:21;97319.44;;;16.73;100.00
45621;BME280;31345;51.522;10.702;2023-08-01T03:47:49;97326.53;;;16.72;100.00
45621;BME280;31345;51.522;10.702;2023-08-01T03:50:17;97320.44;;;16.72;100.00
45621;BME280;31345;51.522;10.702;2023-08-01T03:52:44;97312.41;;;16.65;100.00
45621;BME280;31345;51.522;10.702;2023-08-01T03:55:12;97310.59;;;16.66;100.00
45621;BME280;31345;51.522;10.702;2023-08-01T03:57:47;97315.88;;;16.66;100.00
45621;BME280;31345;51.522;10.702;2023-08-01T04:00:21;97304.16;;;16.68;100.00
45621;BME280;31345;51.522;10.702;2023-08-01T04:02:53;97298.03;;;16.68;100.00
45621;BME280;31345;51.522;10.702;2023-08-01T04:05:26;97288.31;;;16.68;100.00
45621;BME280;31345;51.522;10.702;2023-08-01T04:07:59;97292.56;;;16.69;100.00
45621;BME280;31345;51.522;10.702;2023-08-01T04:10:31;97284.41;;;16.64;100.00
45621;BME280;31345;51.522;10.702;2023-08-01T04:13:04;97288.84;;;16.64;100.00
45621;BME280;31345;51.522;10.702;2023-08-01T04:15:38;97290.50;;;16.65;100.00
45621;BME280;31345;51.522;10.702;2023-08-01T04:18:12;97281.41;;;16.67;100.00
45621;BME280;31345;51.522;10.702;2023-08-01T04:20:45;97285.25;;;16.65;100.00
45621;BME280;31345;51.522;10.702;2023-08-01T04:23:18;97279.97;;;16.65;100.00
45621;BME280;31345;51.522;10.702;2023-08-01T04:25:51;97284.78;;;16.61;100.00
45621;BME280;31345;51.522;10.702;2023-08-01T04:28:19;97270.22;;;16.65;100.00
45621;BME280;31345;51.522;10.702;2023-08-01T04:30:53;97292.22;;;16.72;100.00
45621;BME280;31345;51.522;10.702;2023-08-01T04:33:21;97297.78;;;16.63;100.00
45621;BME280;31345;51.522;10.702;2023-08-01T04:35:53;97289.69;;;16.64;100.00
45621;BME280;31345;51.522;10.702;2023-08-01T04:38:26;97287.88;;;16.65;100.00
45621;BME280;31345;51.522;10.702;2023-08-01T04:40:53;97293.16;;;16.65;100.00
45621;BME280;31345;51.522;10.702;2023-08-01T04:43:26;97279.69;;;16.59;100.00
45621;BME280;31345;51.522;10.702;2023-08-01T04:45:55;97276.41;;;16.57;100.00
45621;BME280;31345;51.522;10.702;2023-08-01T04:48:28;97259.59;;;16.58;100.00
45621;BME280;31345;51.522;10.702;2023-08-01T04:51:00;97232.19;;;16.59;100.00
45621;BME280;31345;51.522;10.702;2023-08-01T04:53:33;97262.69;;;16.62;100.00
45621;BME280;31345;51.522;10.702;2023-08-01T04:56:00;97277.69;;;16.62;100.00
45621;BME280;31345;51.522;10.702;2023-08-01T04:58:28;97276.50;;;16.64;100.00
45621;BME280;31345;51.522;10.702;2023-08-01T05:00:58;97293.25;;;16.56;100.00
45621;BME280;31345;51.522;10.702;2023-08-01T05:03:26;97292.44;;;16.56;100.00
45621;BME280;31345;51.522;10.702;2023-08-01T05:05:58;97296.34;;;16.60;100.00
45621;BME280;31345;51.522;10.702;2023-08-01T05:08:26;97294.97;;;16.64;100.00
45621;BME280;31345;51.522;10.702;2023-08-01T05:10:59;97281.94;;;16.63;100.00
45621;BME280;31345;51.522;10.702;2023-08-01T05:13:32;97295.16;;;16.63;100.00
45621;BME280;31345;51.522;10.702;2023-08-01T05:16:01;97285.69;;;16.68;100.00
45621;BME280;31345;51.522;10.702;2023-08-01T05:18:34;97266.59;;;16.66;100.00
45621;BME280;31345;51.522;10.702;2023-08-01T05:21:07;97264.94;;;16.65;100.00
45621;BME280;31345;51.522;10.702;2023-08-01T05:23:34;97272.13;;;16.71;100.00
45621;BME280;31345;51.522;10.702;2023-08-01T05:26:02;97276.19;;;16.74;100.00
45621;BME280;31345;51.522;10.702;2023-08-01T05:28:35;97294.91;;;16.79;100.00
45621;BME280;31345;51.522;10.702;2023-08-01T05:31:04;97296.69;;;16.72;100.00
45621;BME280;31345;51.522;10.702;2023-08-01T05:33:31;97298.69;;;16.70;100.00
45621;BME280;31345;51.522;10.702;2023-08-01T05:36:04;97309.25;;;16.70;100.00
45621;BME280;31345;51.522;10.702;2023-08-01T05:38:38;97316.91;;;16.65;100.00
45621;BME280;31345;51.522;10.702;2023-08-01T05:41:10;97308.41;;;16.69;100.00
45621;BME280;31345;51.522;10.702;2023-08-01T05:43:38;97305.78;;;16.69;100.00
45621;BME280;31345;51.522;10.702;2023-08-01T05:46:12;97313.69;;;16.69;100.00
45621;BME280;31345;51.522;10.702;2023-08-01T05:48:45;97291.78;;;16.69;100.00
45621;BME280;31345;51.522;10.702;2023-08-01T05:51:14;97275.31;;;16.67;100.00
45621;BME280;31345;51.522;10.702;2023-08-01T05:53:47;97266.59;;;16.66;100.00
45621;BME280;31345;51.522;10.702;2023-08-01T05:56:19;97237.34;;;16.68;100.00
45621;BME280;31345;51.522;10.702;2023-08-01T05:58:47;97246.28;;;16.67;100.00
45621;BME280;31345;51.522;10.702;2023-08-01T06:01:17;97278.09;;;16.80;100.00
45621;BME280;31345;51.522;10.702;2023-08-01T06:03:50;97273.81;;;16.79;100.00
45621;BME280;31345;51.522;10.702;2023-08-01T06:06:18;97262.88;;;16.82;100.00
45621;BME280;31345;51.522;10.702;2023-08-01T06:08:51;97284.19;;;16.81;100.00
45621;BME280;31345;51.522;10.702;2023-08-01T06:11:24;97285.19;;;16.80;100.00
45621;BME280;31345;51.522;10.702;2023-08-01T06:13:58;97268.63;;;16.86;100.00
45621;BME280;31345;51.522;10.702;2023-08-01T06:16:32;97263.91;;;16.81;100.00
45621;BME280;31345;51.522;10.702;2023-08-01T06:18:59;97269.53;;;16.78;100.00
45621;BME280;31345;51.522;10.702;2023-08-01T06:21:32;97257.78;;;16.81;100.00
45621;BME280;31345;51.522;10.702;2023-08-01T06:24:04;97262.28;;;16.80;100.00
45621;BME280;31345;51.522;10.702;2023-08-01T06:26:37;97266.72;;;16.80;100.00
45621;BME280;31345;51.522;10.702;2023-08-01T06:29:04;97274.09;;;16.84;100.00
45621;BME280;31345;51.522;10.702;2023-08-01T06:31:33;97256.28;;;16.93;100.00
45621;BME280;31345;51.522;10.702;2023-08-01T06:34:06;97241.03;;;16.89;100.00
45621;BME280;31345;51.522;10.702;2023-08-01T06:36:39;97237.50;;;16.81;100.00
45621;BME280;31345;51.522;10.702;2023-08-01T06:39:11;97246.16;;;16.75;100.00
45621;BME280;31345;51.522;10.702;2023-08-01T06:41:39;97244.72;;;16.72;100.00
45621;BME280;31345;51.522;10.702;2023-08-01T06:44:12;97247.91;;;16.68;100.00
45621;BME280;31345;51.522;10.702;2023-08-01T06:46:46;97231.66;;;16.64;100.00
45621;BME280;31345;51.522;10.702;2023-08-01T06:49:19;97231.22;;;16.61;100.00
45621;BME280;31345;51.522;10.702;2023-08-01T06:51:52;97225.94;;;16.61;100.00
45621;BME280;31345;51.522;10.702;2023-08-01T06:54:24;97211.91;;;16.60;100.00
45621;BME280;31345;51.522;10.702;2023-08-01T06:56:52;97217.63;;;16.64;100.00
45621;BME280;31345;51.522;10.702;2023-08-01T06:59:19;97227.19;;;16.65;100.00
45621;BME280;31345;51.522;10.702;2023-08-01T07:01:55;97216.47;;;16.66;100.00
45621;BME280;31345;51.522;10.702;2023-08-01T07:04:28;97224.88;;;16.77;100.00
45621;BME280;31345;51.522;10.702;2023-08-01T07:06:55;97221.16;;;16.71;100.00
45621;BME280;31345;51.522;10.702;2023-08-01T07:09:28;97216.53;;;16.73;100.00
45621;BME280;31345;51.522;10.702;2023-08-01T07:12:01;97221.97;;;16.71;100.00
45621;BME280;31345;51.522;10.702;2023-08-01T07:14:33;97228.53;;;16.76;100.00
45621;BME280;31345;51.522;10.702;2023-08-01T07:17:03;97226.25;;;16.72;100.00
45621;BME280;31345;51.522;10.702;2023-08-01T07:19:30;97231.16;;;16.76;100.00
45621;BME280;31345;51.522;10.702;2023-08-01T07:21:58;97245.63;;;16.80;100.00
45621;BME280;31345;51.522;10.702;2023-08-01T07:24:30;97252.41;;;16.89;100.00
45621;BME280;31345;51.522;10.702;2023-08-01T07:26:58;97259.69;;;16.87;100.00
45621;BME280;31345;51.522;10.702;2023-08-01T07:29:30;97280.69;;;16.95;100.00
45621;BME280;31345;51.522;10.702;2023-08-01T07:32:06;97274.47;;;16.81;100.00
45621;BME280;31345;51.522;10.702;2023-08-01T07:34:39;97277.94;;;16.82;100.00
45621;BME280;31345;51.522;10.702;2023-08-01T07:37:12;97281.72;;;16.79;100.00
45621;BME280;31345;51.522;10.702;2023-08-01T07:39:40;97292.03;;;16.74;100.00
45621;BME280;31345;51.522;10.702;2023-08-01T07:42:12;97289.22;;;16.76;100.00
45621;BME280;31345;51.522;10.702;2023-08-01T07:44:45;97302.22;;;16.77;100.00
45621;BME280;31345;51.522;10.702;2023-08-01T07:47:19;97295.38;;;16.83;100.00
45621;BME280;31345;51.522;10.702;2023-08-01T07:49:52;97307.41;;;16.85;100.00
45621;BME280;31345;51.522;10.702;2023-08-01T07:52:19;97305.59;;;16.86;100.00
45621;BME280;31345;51.522;10.702;2023-08-01T07:54:47;97311.28;;;16.90;100.00
45621;BME280;31345;51.522;10.702;2023-08-01T07:57:19;97324.31;;;16.91;100.00
45621;BME280;31345;51.522;10.702;2023-08-01T07:59:47;97328.94;;;16.89;100.00
45621;BME280;31345;51.522;10.702;2023-08-01T08:02:21;97326.75;;;16.93;100.00
45621;BME280;31345;51.522;10.702;2023-08-01T08:04:54;97334.69;;;16.93;100.00
45621;BME280;31345;51.522;10.702;2023-08-01T08:07:21;97323.84;;;17.03;100.00
45621;BME280;31345;51.522;10.702;2023-08-01T08:09:51;97336.44;;;17.07;100.00
45621;BME280;31345;51.522;10.702;2023-08-01T08:12:27;97332.66;;;17.10;100.00
45621;BME280;31345;51.522;10.702;2023-08-01T08:14:57;97349.94;;;17.13;100.00
45621;BME280;31345;51.522;10.702;2023-08-01T08:17:27;97333.06;;;17.14;100.00
45621;BME280;31345;51.522;10.702;2023-08-01T08:20:08;97332.25;;;17.13;100.00
45621;BME280;31345;51.522;10.702;2023-08-01T08:22:50;97340.63;;;17.17;100.00
45621;BME280;31345;51.522;10.702;2023-08-01T08:25:25;97341.06;;;17.20;100.00
45621;BME280;31345;51.522;10.702;2023-08-01T08:27:59;97344.66;;;17.13;100.00
45621;BME280;31345;51.522;10.702;2023-08-01T08:30:29;97346.56;;;17.04;100.00
45621;BME280;31345;51.522;10.702;2023-08-01T08:33:09;97360.91;;;16.94;100.00
45621;BME280;31345;51.522;10.702;2023-08-01T08:35:37;97356.25;;;16.96;100.00
45621;BME280;31345;51.522;10.702;2023-08-01T08:38:04;97357.88;;;16.97;100.00
45621;BME280;31345;51.522;10.702;2023-08-01T08:40:48;97358.16;;;17.03;100.00
45621;BME280;31345;51.522;10.702;2023-08-01T08:43:27;97351.94;;;17.10;100.00
45621;BME280;31345;51.522;10.702;2023-08-01T08:45:57;97363.88;;;17.06;100.00
45621;BME280;31345;51.522;10.702;2023-08-01T08:48:28;97364.13;;;17.11;100.00
45621;BME280;31345;51.522;10.702;2023-08-01T08:50:57;97367.34;;;17.07;100.00
45621;BME280;31345;51.522;10.702;2023-08-01T08:53:26;97366.06;;;17.03;100.00
45621;BME280;31345;51.522;10.702;2023-08-01T08:56:00;97366.34;;;16.93;100.00
45621;BME280;31345;51.522;10.702;2023-08-01T08:58:33;97374.75;;;16.81;100.00
45621;BME280;31345;51.522;10.702;2023-08-01T09:01:01;97374.00;;;16.72;100.00
45621;BME280;31345;51.522;10.702;2023-08-01T09:03:31;97377.50;;;16.73;100.00
45621;BME280;31345;51.522;10.702;2023-08-01T09:06:07;97385.03;;;16.76;100.00
45621;BME280;31345;51.522;10.702;2023-08-01T09:08:47;97386.13;;;16.82;100.00
45621;BME280;31345;51.522;10.702;2023-08-01T09:11:22;97390.22;;;16.84;100.00
45621;BME280;31345;51.522;10.702;2023-08-01T09:13:55;97389.47;;;16.91;100.00
45621;BME280;31345;51.522;10.702;2023-08-01T09:16:22;97388.47;;;16.92;100.00
45621;BME280;31345;51.522;10.702;2023-08-01T09:18:52;97388.84;;;16.89;100.00
45621;BME280;31345;51.522;10.702;2023-08-01T09:21:20;97391.94;;;16.77;100.00
45621;BME280;31345;51.522;10.702;2023-08-01T09:23:53;97396.13;;;16.71;100.00
45621;BME280;31345;51.522;10.702;2023-08-01T09:26:26;97403.50;;;16.76;100.00
45621;BME280;31345;51.522;10.702;2023-08-01T09:28:58;97402.66;;;16.91;100.00
45621;BME280;31345;51.522;10.702;2023-08-01T09:31:32;97400.81;;;17.06;100.00
45621;BME280;31345;51.522;10.702;2023-08-01T09:34:18;97396.34;;;17.22;100.00
45621;BME280;31345;51.522;10.702;2023-08-01T09:36:46;97400.69;;;17.45;100.00
45621;BME280;31345;51.522;10.702;2023-08-01T09:39:20;97408.13;;;17.78;100.00
45621;BME280;31345;51.522;10.702;2023-08-01T09:41:55;97406.72;;;17.82;100.00
45621;BME280;31345;51.522;10.702;2023-08-01T09:44:23;97408.09;;;18.00;100.00
45621;BME280;31345;51.522;10.702;2023-08-01T09:46:56;97408.63;;;18.17;100.00
45621;BME280;31345;51.522;10.702;2023-08-01T09:49:33;97405.00;;;18.18;100.00
45621;BME280;31345;51.522;10.702;2023-08-01T09:52:01;97400.84;;;18.09;100.00
45621;BME280;31345;51.522;10.702;2023-08-01T09:54:31;97399.91;;;18.17;100.00
45621;BME280;31345;51.522;10.702;2023-08-01T09:57:04;97399.59;;;18.33;100.00
45621;BME280;31345;51.522;10.702;2023-08-01T09:59:38;97392.75;;;18.46;100.00
45621;BME280;31345;51.522;10.702;2023-08-01T10:02:15;97387.22;;;18.69;100.00
45621;BME280;31345;51.522;10.702;2023-08-01T10:04:45;97384.84;;;18.81;100.00
45621;BME280;31345;51.522;10.702;2023-08-01T10:07:23;97377.34;;;18.91;100.00
45621;BME280;31345;51.522;10.702;2023-08-01T10:09:58;97383.66;;;18.90;100.00
45621;BME280;31345;51.522;10.702;2023-08-01T10:12:32;97384.47;;;18.91;100.00
45621;BME280;31345;51.522;10.702;2023-08-01T10:15:07;97374.81;;;18.70;100.00
45621;BME280;31345;51.522;10.702;2023-08-01T10:17:41;97376.03;;;18.38;100.00
45621;BME280;31345;51.522;10.702;2023-08-01T10:20:12;97382.22;;;18.52;100.00
45621;BME280;31345;51.522;10.702;2023-08-01T10:22:41;97386.97;;;18.57;100.00
45621;BME280;31345;51.522;10.702;2023-08-01T10:25:14;97387.66;;;18.73;100.00
45621;BME280;31345;51.522;10.702;2023-08-01T10:27:59;97388.34;;;18.88;100.00
45621;BME280;31345;51.522;10.702;2023-08-01T10:30:31;97392.00;;;18.94;100.00
45621;BME280;31345;51.522;10.702;2023-08-01T10:33:04;97388.75;;;18.92;100.00
45621;BME280;31345;51.522;10.702;2023-08-01T10:35:34;97405.66;;;18.84;100.00
45621;BME280;31345;51.522;10.702;2023-08-01T10:38:07;97412.31;;;18.80;100.00
45621;BME280;31345;51.522;10.702;2023-08-01T10:40:46;97414.56;;;18.83;100.00
45621;BME280;31345;51.522;10.702;2023-08-01T10:43:20;97415.19;;;18.78;100.00
45621;BME280;31345;51.522;10.702;2023-08-01T10:46:01;97410.06;;;18.70;100.00
45621;BME280;31345;51.522;10.702;2023-08-01T10:48:48;97412.63;;;18.63;100.00
45621;BME280;31345;51.522;10.702;2023-08-01T10:51:22;97407.19;;;18.72;100.00
45621;BME280;31345;51.522;10.702;2023-08-01T10:53:55;97403.25;;;19.03;100.00
45621;BME280;31345;51.522;10.702;2023-08-01T10:56:29;97408.72;;;19.50;100.00
45621;BME280;31345;51.522;10.702;2023-08-01T10:59:05;97406.13;;;19.84;100.00
45621;BME280;31345;51.522;10.702;2023-08-01T11:01:43;97398.81;;;20.20;98.45
45621;BME280;31345;51.522;10.702;2023-08-01T11:04:17;97396.34;;;20.18;99.48
45621;BME280;31345;51.522;10.702;2023-08-01T11:06:52;97404.75;;;20.02;97.88
45621;BME280;31345;51.522;10.702;2023-08-01T11:09:27;97399.84;;;19.99;96.23
45621;BME280;31345;51.522;10.702;2023-08-01T11:12:00;97399.63;;;20.07;97.13
45621;BME280;31345;51.522;10.702;2023-08-01T11:14:28;97398.81;;;19.93;92.99
45621;BME280;31345;51.522;10.702;2023-08-01T11:17:01;97403.91;;;19.81;94.45
45621;BME280;31345;51.522;10.702;2023-08-01T11:19:34;97409.41;;;19.79;96.26
45621;BME280;31345;51.522;10.702;2023-08-01T11:22:09;97403.50;;;19.98;96.13
45621;BME280;31345;51.522;10.702;2023-08-01T11:24:49;97404.94;;;20.21;96.54
45621;BME280;31345;51.522;10.702;2023-08-01T11:27:22;97393.25;;;20.62;92.27
45621;BME280;31345;51.522;10.702;2023-08-01T11:29:49;97389.69;;;20.95;90.88
45621;BME280;31345;51.522;10.702;2023-08-01T11:32:32;97382.84;;;21.20;89.71
45621;BME280;31345;51.522;10.702;2023-08-01T11:35:05;97386.38;;;21.53;87.39
45621;BME280;31345;51.522;10.702;2023-08-01T11:37:40;97381.81;;;21.60;87.11
45621;BME280;31345;51.522;10.702;2023-08-01T11:40:08;97383.47;;;21.61;86.10
45621;BME280;31345;51.522;10.702;2023-08-01T11:42:41;97381.84;;;21.14;86.84
45621;BME280;31345;51.522;10.702;2023-08-01T11:45:10;97393.00;;;20.77;88.42
45621;BME280;31345;51.522;10.702;2023-08-01T11:47:47;97411.47;;;20.11;91.48
45621;BME280;31345;51.522;10.702;2023-08-01T11:50:20;97406.97;;;19.98;92.99
45621;BME280;31345;51.522;10.702;2023-08-01T11:52:50;97409.84;;;19.97;96.37
45621;BME280;31345;51.522;10.702;2023-08-01T11:55:20;97411.03;;;19.74;97.24
45621;BME280;31345;51.522;10.702;2023-08-01T11:57:54;97422.78;;;19.58;98.93
45621;BME280;31345;51.522;10.702;2023-08-01T12:00:24;97429.09;;;19.43;100.00
45621;BME280;31345;51.522;10.702;2023-08-01T12:03:04;97432.28;;;19.25;100.00
45621;BME280;31345;51.522;10.702;2023-08-01T12:05:32;97429.22;;;19.28;100.00
45621;BME280;31345;51.522;10.702;2023-08-01T12:08:10;97424.31;;;19.87;100.00
45621;BME280;31345;51.522;10.702;2023-08-01T12:10:45;97431.66;;;20.53;100.00
45621;BME280;31345;51.522;10.702;2023-08-01T12:13:21;97423.41;;;20.95;96.21
45621;BME280;31345;51.522;10.702;2023-08-01T12:15:55;97430.81;;;21.32;95.63
45621;BME280;31345;51.522;10.702;2023-08-01T12:18:24;97429.19;;;21.77;92.24
45621;BME280;31345;51.522;10.702;2023-08-01T12:20:52;97423.88;;;21.70;85.16
45621;BME280;31345;51.522;10.702;2023-08-01T12:23:27;97422.91;;;21.64;88.03
45621;BME280;31345;51.522;10.702;2023-08-01T12:25:59;97422.56;;;21.86;87.24
45621;BME280;31345;51.522;10.702;2023-08-01T12:28:32;97410.84;;;21.94;83.95
45621;BME280;31345;51.522;10.702;2023-08-01T12:31:05;97415.38;;;22.19;81.43
45621;BME280;31345;51.522;10.702;2023-08-01T12:33:37;97409.16;;;22.50;78.30
45621;BME280;31345;51.522;10.702;2023-08-01T12:36:05;97414.41;;;22.57;77.67
45621;BME280;31345;51.522;10.702;2023-08-01T12:38:39;97405.16;;;22.60;71.80
45621;BME280;31345;51.522;10.702;2023-08-01T12:41:12;97417.91;;;22.76;78.61
45621;BME280;31345;51.522;10.702;2023-08-01T12:43:44;97413.00;;;22.55;74.54
45621;BME280;31345;51.522;10.702;2023-08-01T12:46:17;97412.44;;;22.71;76.97
45621;BME280;31345;51.522;10.702;2023-08-01T12:48:49;97411.69;;;22.64;76.62
45621;BME280;31345;51.522;10.702;2023-08-01T12:51:17;97405.31;;;23.02;71.33
45621;BME280;31345;51.522;10.702;2023-08-01T12:53:51;97405.66;;;23.06;70.00
45621;BME280;31345;51.522;10.702;2023-08-01T12:56:24;97408.19;;;23.01;75.31
45621;BME280;31345;51.522;10.702;2023-08-01T12:58:56;97401.22;;;23.19;71.27
45621;BME280;31345;51.522;10.702;2023-08-01T13:01:24;97417.19;;;23.25;74.78
45621;BME280;31345;51.522;10.702;2023-08-01T13:03:57;97414.66;;;22.93;70.52